Time;durP1;ratioP1;P1;durP2;ratioP2;P2;SDS_P1;SDS_P2;PMS_P1;PMS_P2;Temp;Humidity;BMP_temperature;BMP_pressure;BME280_temperature;BME280_humidity;BME280_pressure;Samples;Min_cycle;Max_cycle;Signal;HPM_P1;HPM_P2
2022/10/29 00:00:58;;;;;;;;;;;;;;;;;;5057489;28;1367;-73
2022/10/29 00:03:24;;;;;;;;;;;;;;;;;;5075098;28;702;-73
2022/10/29 00:05:54;;;;;;;;;;;;;;;;;;5075573;28;785;-73
2022/10/29 00:08:21;;;;;;;;;;;;;;;;;;5069891;28;1198;-72
2022/10/29 00:10:48;;;;;;;;;;;;;;;;;;5050885;28;1945;-71
2022/10/29 00:13:15;;;;;;;;;;;;;;;;;;5012273;22;3591;-76
2022/10/29 00:15:41;;;;;;;;;;;;;;;;;;4976462;28;930;-78
2022/10/29 00:18:08;;;;;;;;;;;;;;;;;;4977004;28;1028;-78
2022/10/29 00:20:34;;;;;;;;;;;;;;;;;;4983164;28;913;-78
2022/10/29 00:23:01;;;;;;;;;;;;;;;;;;4982447;28;1294;-77
2022/10/29 00:25:27;;;;;;;;;;;;;;;;;;4980821;28;783;-78
2022/10/29 00:27:56;;;;;;;;;;;;;;;;;;4981221;28;791;-78
2022/10/29 00:30:23;;;;;;;;;;;;;;;;;;4989472;28;1930;-78
2022/10/29 00:32:50;;;;;;;;;;;;;;;;;;4957992;28;1423;-78
2022/10/29 00:35:16;;;;;;;;;;;;;;;;;;4985282;28;743;-77
2022/10/29 00:37:43;;;;;;;;;;;;;;;;;;4983678;28;893;-76
2022/10/29 00:40:10;;;;;;;;;;;;;;;;;;4984901;28;862;-76
2022/10/29 00:42:37;;;;;;;;;;;;;;;;;;4980572;28;1367;-78
2022/10/29 00:45:05;;;;;;;;;;;;;;;;;;4981786;28;803;-77
2022/10/29 00:47:32;;;;;;;;;;;;;;;;;;4977392;28;972;-77
2022/10/29 00:50:00;;;;;;;;;;;;;;;;;;4972723;28;921;-77
2022/10/29 00:52:27;;;;;;;;;;;;;;;;;;4959887;28;1995;-77
2022/10/29 00:54:54;;;;;;;;;;;;;;;;;;4979854;28;829;-77
2022/10/29 00:57:21;;;;;;;;;;;;;;;;;;4961326;28;1109;-76
2022/10/29 00:59:48;;;;;;;;;;;;;;;;;;4980560;28;1058;-77
2022/10/29 01:02:16;;;;;;;;;;;;;;;;;;4959164;28;1312;-76
2022/10/29 01:04:42;;;;;;;;;;;;;;;;;;4981927;28;858;-76
2022/10/29 01:07:09;;;;;;;;;;;;;;;;;;4956431;28;1100;-77
2022/10/29 01:09:36;;;;;;;;;;;;;;;;;;4967338;28;1158;-77
2022/10/29 01:12:18;;;;;;;;;;;;;;;;;;5000709;28;1989;-77
2022/10/29 01:14:48;;;;;;;;;;;;;;;;;;5001034;28;892;-77
2022/10/29 01:17:18;;;;;;;;;;;;;;;;;;4979919;28;981;-77
2022/10/29 01:19:55;;;;;;;;;;;;;;;;;;5002164;28;988;-77
2022/10/29 01:22:23;;;;;;;;;;;;;;;;;;4986475;28;1627;-76
2022/10/29 01:24:56;;;;;;;;;;;;;;;;;;4952735;28;1145;-78
2022/10/29 01:27:28;;;;;;;;;;;;;;;;;;4977637;28;992;-76
2022/10/29 01:29:57;;;;;;;;;;;;;;;;;;4960956;28;917;-78
2022/10/29 01:32:27;;;;;;;;;;;;;;;;;;4958205;28;1938;-76
2022/10/29 01:34:55;;;;;;;;;;;;;;;;;;4962004;28;1269;-76
2022/10/29 01:37:25;;;;;;;;;;;;;;;;;;4977129;28;798;-78
2022/10/29 01:39:52;;;;;;;;;;;;;;;;;;4960251;28;982;-78
2022/10/29 01:42:21;;;;;;;;;;;;;;;;;;5044211;28;1326;-77
2022/10/29 01:44:48;;;;;;;;;;;;;;;;;;5012163;28;1148;-77
2022/10/29 01:47:15;;;;;;;;;;;;;;;;;;5014275;28;1163;-77
2022/10/29 01:49:43;;;;;;;;;;;;;;;;;;5014666;28;1179;-78
2022/10/29 01:52:10;;;;;;;;;;;;;;;;;;5031277;28;1914;-77
2022/10/29 01:54:39;;;;;;;;;;;;;;;;;;5032391;28;846;-78
2022/10/29 01:57:20;;;;;;;;;;;;;;;;;;5032414;28;989;-78
2022/10/29 01:59:46;;;;;;;;;;;;;;;;;;5031731;28;1381;-76
2022/10/29 02:02:14;;;;;;;;;;;;;;;;;;5031582;28;1387;-77
2022/10/29 02:04:45;;;;;;;;;;;;;;;;;;5031993;28;1064;-77
2022/10/29 02:07:12;;;;;;;;;;;;;;;;;;5031966;28;786;-76
2022/10/29 02:09:39;;;;;;;;;;;;;;;;;;5054371;28;1155;-77
2022/10/29 02:12:08;;;;;;;;;;;;;;;;;;5071241;28;1972;-76
2022/10/29 02:14:36;;;;;;;;;;;;;;;;;;5053237;28;1385;-78
2022/10/29 02:17:02;;;;;;;;;;;;;;;;;;5058141;28;1575;-77
2022/10/29 02:19:29;;;;;;;;;;;;;;;;;;5048637;28;1373;-77
2022/10/29 02:21:56;;;;;;;;;;;;;;;;;;5050790;28;1115;-77
2022/10/29 02:24:24;;;;;;;;;;;;;;;;;;5051439;28;1392;-77
2022/10/29 02:26:50;;;;;;;;;;;;;;;;;;5057437;28;1088;-77
2022/10/29 02:29:16;;;;;;;;;;;;;;;;;;5059885;28;703;-77
2022/10/29 02:31:42;;;;;;;;;;;;;;;;;;5051135;28;1974;-77
2022/10/29 02:34:08;;;;;;;;;;;;;;;;;;5051709;28;1337;-78
2022/10/29 02:36:34;;;;;;;;;;;;;;;;;;5053182;28;1341;-75
2022/10/29 02:39:02;;;;;;;;;;;;;;;;;;5071367;28;1079;-77
2022/10/29 02:41:28;;;;;;;;;;;;;;;;;;5070540;28;938;-77
2022/10/29 02:43:54;;;;;;;;;;;;;;;;;;5070975;28;1306;-78
2022/10/29 02:46:22;;;;;;;;;;;;;;;;;;5073995;28;967;-76
2022/10/29 02:48:48;;;;;;;;;;;;;;;;;;5076423;28;1087;-74
2022/10/29 02:51:14;;;;;;;;;;;;;;;;;;5072469;28;1910;-78
2022/10/29 02:53:40;;;;;;;;;;;;;;;;;;5072364;28;1308;-77
2022/10/29 02:56:08;;;;;;;;;;;;;;;;;;5054787;28;1327;-77
2022/10/29 02:58:35;;;;;;;;;;;;;;;;;;5072367;28;941;-78
2022/10/29 03:01:01;;;;;;;;;;;;;;;;;;5072138;28;941;-75
2022/10/29 03:03:27;;;;;;;;;;;;;;;;;;5071597;28;1387;-77
2022/10/29 03:05:53;;;;;;;;;;;;;;;;;;5072562;28;790;-78
2022/10/29 03:08:20;;;;;;;;;;;;;;;;;;5072431;28;884;-77
2022/10/29 03:10:46;;;;;;;;;;;;;;;;;;5054036;28;1510;-78
2022/10/29 03:13:14;;;;;;;;;;;;;;;;;;5048811;28;1954;-77
2022/10/29 03:15:42;;;;;;;;;;;;;;;;;;5072173;28;1130;-77
2022/10/29 03:18:08;;;;;;;;;;;;;;;;;;5072130;28;952;-77
2022/10/29 03:20:35;;;;;;;;;;;;;;;;;;5072375;28;972;-77
2022/10/29 03:23:01;;;;;;;;;;;;;;;;;;5053301;28;1318;-77
2022/10/29 03:25:27;;;;;;;;;;;;;;;;;;5072079;28;1051;-78
2022/10/29 03:27:53;;;;;;;;;;;;;;;;;;5071653;28;905;-77
2022/10/29 03:30:21;;;;;;;;;;;;;;;;;;5054192;28;1343;-77
2022/10/29 03:32:47;;;;;;;;;;;;;;;;;;5071162;28;1926;-78
2022/10/29 03:35:14;;;;;;;;;;;;;;;;;;5071765;28;1126;-78
2022/10/29 03:37:40;;;;;;;;;;;;;;;;;;5054021;28;1088;-77
2022/10/29 03:40:07;;;;;;;;;;;;;;;;;;5072123;28;873;-77
2022/10/29 03:42:33;;;;;;;;;;;;;;;;;;5070723;28;1387;-77
2022/10/29 03:45:00;;;;;;;;;;;;;;;;;;5053812;28;1137;-77
2022/10/29 03:47:27;;;;;;;;;;;;;;;;;;5071898;28;1149;-77
2022/10/29 03:49:54;;;;;;;;;;;;;;;;;;5072222;28;839;-77
2022/10/29 03:52:20;;;;;;;;;;;;;;;;;;5070907;28;1977;-77
2022/10/29 03:54:46;;;;;;;;;;;;;;;;;;5071522;28;1076;-77
2022/10/29 03:57:13;;;;;;;;;;;;;;;;;;5071943;28;1063;-77
2022/10/29 03:59:39;;;;;;;;;;;;;;;;;;5053779;28;1182;-77
2022/10/29 04:02:05;;;;;;;;;;;;;;;;;;5053283;28;1290;-77
2022/10/29 04:04:33;;;;;;;;;;;;;;;;;;5071013;28;1039;-78
2022/10/29 04:06:59;;;;;;;;;;;;;;;;;;5070568;28;968;-77
2022/10/29 04:09:25;;;;;;;;;;;;;;;;;;5070320;28;1071;-77
2022/10/29 04:11:51;;;;;;;;;;;;;;;;;;5062850;28;1944;-77
2022/10/29 04:14:17;;;;;;;;;;;;;;;;;;5049849;28;1443;-77
2022/10/29 04:16:44;;;;;;;;;;;;;;;;;;5049061;28;1290;-77
2022/10/29 04:19:10;;;;;;;;;;;;;;;;;;5049312;28;1498;-77
2022/10/29 04:21:37;;;;;;;;;;;;;;;;;;5037846;28;1467;-78
2022/10/29 04:24:04;;;;;;;;;;;;;;;;;;5049713;28;1472;-78
2022/10/29 04:26:30;;;;;;;;;;;;;;;;;;5050042;28;778;-77
2022/10/29 04:28:56;;;;;;;;;;;;;;;;;;5043643;28;1511;-77
2022/10/29 04:31:22;;;;;;;;;;;;;;;;;;5047642;28;1321;-76
2022/10/29 04:33:48;;;;;;;;;;;;;;;;;;5049426;28;1918;-76
2022/10/29 04:36:15;;;;;;;;;;;;;;;;;;5043312;28;1444;-76
2022/10/29 04:38:42;;;;;;;;;;;;;;;;;;5050029;28;1440;-76
2022/10/29 04:41:08;;;;;;;;;;;;;;;;;;5052009;28;1234;-78
2022/10/29 04:43:34;;;;;;;;;;;;;;;;;;5052738;28;1262;-76
2022/10/29 04:46:01;;;;;;;;;;;;;;;;;;5053879;28;687;-76
2022/10/29 04:48:27;;;;;;;;;;;;;;;;;;5053339;28;1031;-75
2022/10/29 04:50:54;;;;;;;;;;;;;;;;;;5053482;28;818;-75
2022/10/29 04:53:20;;;;;;;;;;;;;;;;;;5052652;28;1914;-75
2022/10/29 04:55:48;;;;;;;;;;;;;;;;;;5053554;28;936;-75
2022/10/29 04:58:14;;;;;;;;;;;;;;;;;;5053323;28;1047;-75
2022/10/29 05:00:41;;;;;;;;;;;;;;;;;;5053276;28;910;-75
2022/10/29 05:03:07;;;;;;;;;;;;;;;;;;5039864;28;1401;-75
2022/10/29 05:05:33;;;;;;;;;;;;;;;;;;5033455;28;1135;-75
2022/10/29 05:08:00;;;;;;;;;;;;;;;;;;5015449;28;1208;-75
2022/10/29 05:10:26;;;;;;;;;;;;;;;;;;5015507;28;1312;-75
2022/10/29 05:12:58;;;;;;;;;;;;;;;;;;5062274;28;1922;-76
2022/10/29 05:15:24;;;;;;;;;;;;;;;;;;5055272;28;1123;-75
2022/10/29 05:17:50;;;;;;;;;;;;;;;;;;5055253;28;1211;-75
2022/10/29 05:20:16;;;;;;;;;;;;;;;;;;5072954;28;896;-74
2022/10/29 05:22:42;;;;;;;;;;;;;;;;;;5072166;28;1308;-74
2022/10/29 05:25:09;;;;;;;;;;;;;;;;;;5073047;28;1000;-75
2022/10/29 05:27:35;;;;;;;;;;;;;;;;;;5072743;28;719;-75
2022/10/29 05:30:02;;;;;;;;;;;;;;;;;;5072597;28;1056;-75
2022/10/29 05:32:29;;;;;;;;;;;;;;;;;;5040157;28;1989;-75
2022/10/29 05:34:55;;;;;;;;;;;;;;;;;;5052740;28;1142;-76
2022/10/29 05:37:24;;;;;;;;;;;;;;;;;;5042826;28;1063;-78
2022/10/29 05:39:50;;;;;;;;;;;;;;;;;;4986574;28;862;-78
2022/10/29 05:42:17;;;;;;;;;;;;;;;;;;4988303;28;1388;-78
2022/10/29 05:44:43;;;;;;;;;;;;;;;;;;4986787;28;878;-79
2022/10/29 05:47:11;;;;;;;;;;;;;;;;;;4970309;28;862;-76
2022/10/29 05:49:41;;;;;;;;;;;;;;;;;;4962489;28;1040;-80
2022/10/29 05:52:07;;;;;;;;;;;;;;;;;;4985857;28;1948;-77
2022/10/29 05:54:34;;;;;;;;;;;;;;;;;;4989781;28;956;-79
2022/10/29 05:57:00;;;;;;;;;;;;;;;;;;4974625;28;1621;-79
2022/10/29 05:59:27;;;;;;;;;;;;;;;;;;4986468;28;936;-79
2022/10/29 06:01:53;;;;;;;;;;;;;;;;;;4988324;28;870;-79
2022/10/29 06:04:21;;;;;;;;;;;;;;;;;;4984010;28;1300;-81
2022/10/29 06:06:48;;;;;;;;;;;;;;;;;;4979490;28;1563;-79
2022/10/29 06:09:14;;;;;;;;;;;;;;;;;;4985445;28;1289;-79
2022/10/29 06:11:41;;;;;;;;;;;;;;;;;;4993891;28;1233;-79
2022/10/29 06:14:07;;;;;;;;;;;;;;;;;;4986856;28;2017;-78
2022/10/29 06:16:34;;;;;;;;;;;;;;;;;;4987670;28;960;-77
2022/10/29 06:19:00;;;;;;;;;;;;;;;;;;4987257;28;898;-79
2022/10/29 06:21:28;;;;;;;;;;;;;;;;;;4994982;28;946;-79
2022/10/29 06:23:55;;;;;;;;;;;;;;;;;;4979575;28;1282;-79
2022/10/29 06:26:21;;;;;;;;;;;;;;;;;;4983365;28;893;-80
2022/10/29 06:28:47;;;;;;;;;;;;;;;;;;4989213;28;861;-78
2022/10/29 06:31:14;;;;;;;;;;;;;;;;;;5058133;28;1310;-76
2022/10/29 06:33:40;;;;;;;;;;;;;;;;;;5053962;28;1985;-78
2022/10/29 06:36:06;;;;;;;;;;;;;;;;;;5045299;28;1384;-76
2022/10/29 06:38:34;;;;;;;;;;;;;;;;;;5051705;28;929;-75
2022/10/29 06:41:00;;;;;;;;;;;;;;;;;;5051121;28;1060;-77
2022/10/29 06:43:26;;;;;;;;;;;;;;;;;;5050189;28;1346;-76
2022/10/29 06:45:52;;;;;;;;;;;;;;;;;;5047555;28;1411;-75
2022/10/29 06:48:18;;;;;;;;;;;;;;;;;;5051738;28;1375;-74
2022/10/29 06:50:45;;;;;;;;;;;;;;;;;;5051475;28;1134;-74
2022/10/29 06:53:12;;;;;;;;;;;;;;;;;;5049617;28;1989;-77
2022/10/29 06:55:39;;;;;;;;;;;;;;;;;;5049033;28;1467;-75
2022/10/29 06:58:06;;;;;;;;;;;;;;;;;;5049143;28;1467;-75
2022/10/29 07:00:33;;;;;;;;;;;;;;;;;;5051948;22;1946;-73
2022/10/29 07:02:59;;;;;;;;;;;;;;;;;;5066345;28;1262;-72
2022/10/29 07:05:26;;;;;;;;;;;;;;;;;;5061112;28;1184;-71
2022/10/29 07:07:54;;;;;;;;;;;;;;;;;;5053252;28;1136;-72
2022/10/29 07:10:20;;;;;;;;;;;;;;;;;;5058928;28;1800;-71
2022/10/29 07:12:48;;;;;;;;;;;;;;;;;;5043988;28;1918;-72
2022/10/29 07:15:14;;;;;;;;;;;;;;;;;;5070943;28;1226;-73
2022/10/29 07:17:40;;;;;;;;;;;;;;;;;;5070023;28;1207;-72
2022/10/29 07:20:07;;;;;;;;;;;;;;;;;;5070640;28;1458;-71
2022/10/29 07:22:33;;;;;;;;;;;;;;;;;;5068536;28;1113;-72
2022/10/29 07:24:59;;;;;;;;;;;;;;;;;;5069386;28;1337;-73
2022/10/29 07:27:27;;;;;;;;;;;;;;;;;;5069228;28;1223;-72
2022/10/29 07:29:54;;;;;;;;;;;;;;;;;;5051651;28;1238;-73
2022/10/29 07:32:22;;;;;;;;;;;;;;;;;;5050773;28;1440;-71
2022/10/29 07:34:48;;;;;;;;;;;;;;;;;;5051375;28;1955;-72
2022/10/29 07:37:14;;;;;;;;;;;;;;;;;;5050975;28;1335;-71
2022/10/29 07:39:41;;;;;;;;;;;;;;;;;;5049773;28;1695;-74
2022/10/29 07:42:07;;;;;;;;;;;;;;;;;;5045721;28;1758;-72
2022/10/29 07:44:33;;;;;;;;;;;;;;;;;;5050297;28;1298;-73
2022/10/29 07:47:01;;;;;;;;;;;;;;;;;;5069114;28;1275;-73
2022/10/29 07:49:28;;;;;;;;;;;;;;;;;;5071897;28;1231;-73
2022/10/29 07:51:54;;;;;;;;;;;;;;;;;;5079418;28;1397;-73
2022/10/29 07:54:20;;;;;;;;;;;;;;;;;;5079075;28;1913;-73
2022/10/29 07:56:46;;;;;;;;;;;;;;;;;;5060221;28;1406;-70
2022/10/29 07:59:13;;;;;;;;;;;;;;;;;;5080097;28;1401;-72
2022/10/29 08:01:40;;;;;;;;;;;;;;;;;;5054747;28;1421;-72
2022/10/29 08:04:07;;;;;;;;;;;;;;;;;;5056051;28;1448;-73
2022/10/29 08:06:33;;;;;;;;;;;;;;;;;;5073432;28;1385;-73
2022/10/29 08:09:00;;;;;;;;;;;;;;;;;;5069372;28;1482;-74
2022/10/29 08:11:26;;;;;;;;;;;;;;;;;;5053598;28;1486;-73
2022/10/29 08:13:52;;;;;;;;;;;;;;;;;;5077492;28;1914;-73
2022/10/29 08:16:18;;;;;;;;;;;;;;;;;;5072457;28;1468;-71
2022/10/29 08:18:45;;;;;;;;;;;;;;;;;;5052741;28;1456;-73
2022/10/29 08:21:12;;;;;;;;;;;;;;;;;;5055386;28;1317;-73
2022/10/29 08:23:39;;;;;;;;;;;;;;;;;;5070973;28;1653;-72
2022/10/29 08:26:05;;;;;;;;;;;;;;;;;;5073397;28;1166;-72
2022/10/29 08:28:31;;;;;;;;;;;;;;;;;;5070771;28;1437;-72
2022/10/29 08:30:57;;;;;;;;;;;;;;;;;;5073881;28;1314;-72
2022/10/29 08:33:24;;;;;;;;;;;;;;;;;;5055179;28;1922;-72
2022/10/29 08:35:51;;;;;;;;;;;;;;;;;;5073132;28;1075;-72
2022/10/29 08:38:19;;;;;;;;;;;;;;;;;;5055249;28;1251;-72
2022/10/29 08:40:48;;;;;;;;;;;;;;;;;;5054971;28;1380;-72
2022/10/29 08:43:21;;;;;;;;;;;;;;;;;;5071559;28;1167;-72
2022/10/29 08:45:48;;;;;;;;;;;;;;;;;;5073933;28;1159;-73
2022/10/29 08:48:20;;;;;;;;;;;;;;;;;;5076393;28;1307;-72
2022/10/29 08:50:47;;;;;;;;;;;;;;;;;;5071621;28;1596;-72
2022/10/29 08:53:15;;;;;;;;;;;;;;;;;;5072549;28;1971;-72
2022/10/29 08:55:42;;;;;;;;;;;;;;;;;;5073502;28;979;-72
2022/10/29 08:58:10;;;;;;;;;;;;;;;;;;5073514;28;1063;-72
2022/10/29 09:00:37;;;;;;;;;;;;;;;;;;5055036;28;1397;-72
2022/10/29 09:03:08;;;;;;;;;;;;;;;;;;5071908;28;1420;-72
2022/10/29 09:05:36;;;;;;;;;;;;;;;;;;5071816;28;1243;-72
2022/10/29 09:08:05;;;;;;;;;;;;;;;;;;5071935;28;1371;-72
2022/10/29 09:10:32;;;;;;;;;;;;;;;;;;5071438;28;1316;-72
2022/10/29 09:13:06;;;;;;;;;;;;;;;;;;5070302;28;1115;-72
2022/10/29 09:15:49;;;;;;;;;;;;;;;;;;5071211;28;1922;-72
2022/10/29 09:18:18;;;;;;;;;;;;;;;;;;5071371;28;1031;-71
2022/10/29 09:20:46;;;;;;;;;;;;;;;;;;5070921;28;1290;-72
2022/10/29 09:23:14;;;;;;;;;;;;;;;;;;5069571;28;1194;-72
2022/10/29 09:25:43;;;;;;;;;;;;;;;;;;5071665;28;1004;-72
2022/10/29 09:28:13;;;;;;;;;;;;;;;;;;5072974;28;1059;-72
2022/10/29 09:30:40;;;;;;;;;;;;;;;;;;5072576;28;1289;-72
2022/10/29 09:33:08;;;;;;;;;;;;;;;;;;5072085;28;921;-72
2022/10/29 09:35:37;;;;;;;;;;;;;;;;;;5071050;28;1971;-72
2022/10/29 09:38:07;;;;;;;;;;;;;;;;;;5071490;28;1155;-71
2022/10/29 09:40:34;;;;;;;;;;;;;;;;;;5072728;28;1368;-72
2022/10/29 09:43:01;;;;;;;;;;;;;;;;;;5071846;28;1063;-72
2022/10/29 09:45:33;;;;;;;;;;;;;;;;;;5071236;28;1243;-71
2022/10/29 09:48:02;;;;;;;;;;;;;;;;;;5071315;28;1234;-72
2022/10/29 09:50:29;;;;;;;;;;;;;;;;;;5072521;28;1286;-72
2022/10/29 09:52:56;;;;;;;;;;;;;;;;;;5071536;28;1064;-72
2022/10/29 09:55:23;;;;;;;;;;;;;;;;;;5072133;28;1980;-71
2022/10/29 09:57:49;;;;;;;;;;;;;;;;;;5072455;28;1051;-72
2022/10/29 10:00:18;;;;;;;;;;;;;;;;;;5072176;28;1294;-72
2022/10/29 10:02:47;;;;;;;;;;;;;;;;;;5071546;28;1016;-72
2022/10/29 10:05:14;;;;;;;;;;;;;;;;;;5071141;28;1242;-72
2022/10/29 10:07:40;;;;;;;;;;;;;;;;;;5072099;28;914;-72
2022/10/29 10:10:07;;;;;;;;;;;;;;;;;;5071866;28;1382;-72
2022/10/29 10:12:43;;;;;;;;;;;;;;;;;;5071279;28;941;-72
2022/10/29 10:15:17;;;;;;;;;;;;;;;;;;5071868;28;1918;-72
2022/10/29 10:17:58;;;;;;;;;;;;;;;;;;5071941;28;846;-72
2022/10/29 10:20:28;;;;;;;;;;;;;;;;;;5071671;28;1404;-72
2022/10/29 10:22:54;;;;;;;;;;;;;;;;;;5071224;28;1140;-72
2022/10/29 10:25:31;;;;;;;;;;;;;;;;;;5071518;28;1017;-72
2022/10/29 10:27:57;;;;;;;;;;;;;;;;;;5067616;28;1375;-72
2022/10/29 10:30:24;;;;;;;;;;;;;;;;;;5064674;28;1811;-72
2022/10/29 10:32:50;;;;;;;;;;;;;;;;;;5072443;28;1403;-73
2022/10/29 10:35:26;;;;;;;;;;;;;;;;;;5049475;28;1972;-73
2022/10/29 10:37:52;;;;;;;;;;;;;;;;;;5068681;28;1310;-73
2022/10/29 10:40:19;;;;;;;;;;;;;;;;;;5078313;28;1415;-73
2022/10/29 10:42:46;;;;;;;;;;;;;;;;;;5077667;28;1478;-73
2022/10/29 10:45:13;;;;;;;;;;;;;;;;;;5054116;28;1217;-73
2022/10/29 10:47:40;;;;;;;;;;;;;;;;;;5070683;28;1538;-73
2022/10/29 10:50:09;;;;;;;;;;;;;;;;;;5052802;28;1177;-73
2022/10/29 10:52:37;;;;;;;;;;;;;;;;;;5050685;28;1126;-73
2022/10/29 10:55:09;;;;;;;;;;;;;;;;;;5051187;28;1921;-72
2022/10/29 10:57:36;;;;;;;;;;;;;;;;;;5051234;28;839;-72
2022/10/29 11:00:03;;;;;;;;;;;;;;;;;;5051472;28;1067;-73
2022/10/29 11:02:33;;;;;;;;;;;;;;;;;;5060956;28;1407;-73
2022/10/29 11:04:59;;;;;;;;;;;;;;;;;;5061722;28;1412;-73
2022/10/29 11:07:27;;;;;;;;;;;;;;;;;;5050725;28;810;-72
2022/10/29 11:09:54;;;;;;;;;;;;;;;;;;5051110;28;730;-73
2022/10/29 11:12:23;;;;;;;;;;;;;;;;;;5050229;28;1296;-73
2022/10/29 11:14:51;;;;;;;;;;;;;;;;;;5069110;28;1910;-73
2022/10/29 11:17:22;;;;;;;;;;;;;;;;;;5066358;28;1422;-73
2022/10/29 11:19:48;;;;;;;;;;;;;;;;;;5066376;28;1201;-71
2022/10/29 11:22:17;;;;;;;;;;;;;;;;;;5069567;28;1337;-71
2022/10/29 11:24:44;;;;;;;;;;;;;;;;;;5070677;28;1063;-72
2022/10/29 11:27:15;;;;;;;;;;;;;;;;;;5049709;28;1454;-73
2022/10/29 11:29:52;;;;;;;;;;;;;;;;;;5065773;28;1462;-72
2022/10/29 11:32:19;;;;;;;;;;;;;;;;;;5074152;28;1437;-72
2022/10/29 11:34:47;;;;;;;;;;;;;;;;;;5068322;28;1914;-73
2022/10/29 11:37:15;;;;;;;;;;;;;;;;;;5035929;28;1267;-72
2022/10/29 11:39:45;;;;;;;;;;;;;;;;;;5051148;28;1155;-73
2022/10/29 11:42:12;;;;;;;;;;;;;;;;;;5063469;28;1411;-74
2022/10/29 11:44:40;;;;;;;;;;;;;;;;;;5058592;28;1386;-72
2022/10/29 11:47:10;;;;;;;;;;;;;;;;;;5067187;28;1450;-72
2022/10/29 11:49:40;;;;;;;;;;;;;;;;;;5070542;28;1470;-72
2022/10/29 11:52:09;;;;;;;;;;;;;;;;;;5069008;28;1454;-72
2022/10/29 11:54:37;;;;;;;;;;;;;;;;;;5063146;28;1980;-72
2022/10/29 11:57:04;;;;;;;;;;;;;;;;;;5071625;28;1316;-72
2022/10/29 11:59:34;;;;;;;;;;;;;;;;;;5073645;28;1231;-72
2022/10/29 12:02:05;;;;;;;;;;;;;;;;;;5072264;28;1459;-72
2022/10/29 12:04:31;;;;;;;;;;;;;;;;;;5072584;28;1418;-73
2022/10/29 12:07:24;;;;;;;;;;;;;;;;;;5074094;28;1252;-73
2022/10/29 12:10:03;;;;;;;;;;;;;;;;;;5043701;28;1441;-72
2022/10/29 12:12:30;;;;;;;;;;;;;;;;;;5068521;28;1483;-72
2022/10/29 12:14:58;;;;;;;;;;;;;;;;;;5072961;28;1985;-72
2022/10/29 12:17:27;;;;;;;;;;;;;;;;;;5061382;28;1149;-73
2022/10/29 12:19:54;;;;;;;;;;;;;;;;;;5065446;28;1430;-74
2022/10/29 12:22:23;;;;;;;;;;;;;;;;;;5071679;28;1683;-73
2022/10/29 12:24:52;;;;;;;;;;;;;;;;;;5072647;28;1208;-73
2022/10/29 12:27:19;;;;;;;;;;;;;;;;;;5073717;28;1059;-72
2022/10/29 12:29:47;;;;;;;;;;;;;;;;;;5073986;28;858;-73
2022/10/29 12:32:15;;;;;;;;;;;;;;;;;;5073191;28;1356;-72
2022/10/29 12:34:44;;;;;;;;;;;;;;;;;;5073504;28;1973;-73
2022/10/29 12:37:11;;;;;;;;;;;;;;;;;;5073559;28;905;-73
2022/10/29 12:39:38;;;;;;;;;;;;;;;;;;5072547;28;921;-73
2022/10/29 12:42:05;;;;;;;;;;;;;;;;;;5063874;28;1522;-73
2022/10/29 12:44:34;;;;;;;;;;;;;;;;;;5072099;28;1577;-72
2022/10/29 12:47:01;;;;;;;;;;;;;;;;;;5071931;28;1299;-73
2022/10/29 12:49:30;;;;;;;;;;;;;;;;;;5055522;28;1377;-72
2022/10/29 12:51:58;;;;;;;;;;;;;;;;;;5072339;28;1290;-73
2022/10/29 12:54:27;;;;;;;;;;;;;;;;;;5073135;28;1922;-73
2022/10/29 12:56:55;;;;;;;;;;;;;;;;;;5055370;28;1048;-73
2022/10/29 12:59:28;;;;;;;;;;;;;;;;;;5072645;28;944;-73
2022/10/29 13:01:54;;;;;;;;;;;;;;;;;;5054460;28;1391;-73
2022/10/29 13:04:24;;;;;;;;;;;;;;;;;;5073262;28;949;-73
2022/10/29 13:06:59;;;;;;;;;;;;;;;;;;5054893;28;1047;-73
2022/10/29 13:09:26;;;;;;;;;;;;;;;;;;5052971;28;1497;-73
2022/10/29 13:11:52;;;;;;;;;;;;;;;;;;5072329;28;1328;-73
2022/10/29 13:14:23;;;;;;;;;;;;;;;;;;5073020;28;976;-73
2022/10/29 13:16:49;;;;;;;;;;;;;;;;;;5072998;28;1918;-73
2022/10/29 13:19:17;;;;;;;;;;;;;;;;;;5072870;28;933;-73
2022/10/29 13:22:01;;;;;;;;;;;;;;;;;;5065354;22;3960;-77
2022/10/29 13:24:28;;;;;;;;;;;;;;;;;;5062746;28;1033;-76
2022/10/29 13:26:58;;;;;;;;;;;;;;;;;;5056537;28;1244;-76
2022/10/29 13:29:43;;;;;;;;;;;;;;;;;;5052725;28;958;-77
2022/10/29 13:32:24;;;;;;;;;;;;;;;;;;5035035;28;1419;-78
2022/10/29 13:34:54;;;;;;;;;;;;;;;;;;5032813;28;1977;-74
2022/10/29 13:37:39;;;;;;;;;;;;;;;;;;5032623;28;883;-76
2022/10/29 13:40:24;;;;;;;;;;;;;;;;;;5031392;28;1403;-76
2022/10/29 13:42:53;;;;;;;;;;;;;;;;;;5032003;28;1083;-77
2022/10/29 13:45:19;;;;;;;;;;;;;;;;;;5031054;28;1335;-76
2022/10/29 13:47:45;;;;;;;;;;;;;;;;;;5031066;28;1347;-75
2022/10/29 13:50:11;;;;;;;;;;;;;;;;;;5032434;28;1298;-76
2022/10/29 13:52:38;;;;;;;;;;;;;;;;;;5038817;28;1432;-77
2022/10/29 13:55:05;;;;;;;;;;;;;;;;;;5044344;28;1914;-77
2022/10/29 13:57:32;;;;;;;;;;;;;;;;;;5049110;28;1408;-75
2022/10/29 14:00:01;;;;;;;;;;;;;;;;;;5049573;28;1341;-76
2022/10/29 14:02:32;;;;;;;;;;;;;;;;;;5057788;28;1410;-76
2022/10/29 14:04:59;;;;;;;;;;;;;;;;;;5061011;28;1259;-75
2022/10/29 14:07:27;;;;;;;;;;;;;;;;;;5047593;28;1538;-75
2022/10/29 14:09:54;;;;;;;;;;;;;;;;;;5049517;28;1302;-76
2022/10/29 14:12:22;;;;;;;;;;;;;;;;;;5025129;28;1555;-76
2022/10/29 14:14:50;;;;;;;;;;;;;;;;;;4991040;28;1993;-76
2022/10/29 14:17:18;;;;;;;;;;;;;;;;;;4975346;28;894;-75
2022/10/29 14:19:45;;;;;;;;;;;;;;;;;;4987826;28;1690;-76
2022/10/29 14:22:15;;;;;;;;;;;;;;;;;;4982368;28;1749;-76
2022/10/29 14:24:42;;;;;;;;;;;;;;;;;;4975889;28;922;-75
2022/10/29 14:27:09;;;;;;;;;;;;;;;;;;4987380;28;982;-74
2022/10/29 14:29:35;;;;;;;;;;;;;;;;;;4986444;28;1030;-75
2022/10/29 14:32:05;;;;;;;;;;;;;;;;;;4984683;28;1388;-75
2022/10/29 14:34:33;;;;;;;;;;;;;;;;;;4975100;28;1186;-74
2022/10/29 14:37:00;;;;;;;;;;;;;;;;;;4981453;28;1938;-75
2022/10/29 14:39:27;;;;;;;;;;;;;;;;;;4983868;28;1143;-73
2022/10/29 14:41:54;;;;;;;;;;;;;;;;;;4977048;28;1388;-75
2022/10/29 14:44:23;;;;;;;;;;;;;;;;;;4980884;28;1140;-73
2022/10/29 14:46:51;;;;;;;;;;;;;;;;;;4983222;28;1151;-74
2022/10/29 14:49:18;;;;;;;;;;;;;;;;;;4985273;28;1652;-73
2022/10/29 14:51:49;;;;;;;;;;;;;;;;;;4976335;28;1411;-74
2022/10/29 14:54:17;;;;;;;;;;;;;;;;;;4986221;28;1076;-74
2022/10/29 14:56:43;;;;;;;;;;;;;;;;;;4987303;28;1995;-74
2022/10/29 14:59:13;;;;;;;;;;;;;;;;;;4981487;28;1461;-74
2022/10/29 15:01:46;;;;;;;;;;;;;;;;;;4979085;28;1303;-74
2022/10/29 15:04:17;;;;;;;;;;;;;;;;;;4981584;28;1188;-74
2022/10/29 15:06:44;;;;;;;;;;;;;;;;;;4991290;28;1100;-74
2022/10/29 15:09:14;;;;;;;;;;;;;;;;;;4991361;28;1202;-77
2022/10/29 15:11:42;;;;;;;;;;;;;;;;;;4982456;28;1440;-74
2022/10/29 15:14:24;;;;;;;;;;;;;;;;;;4982504;28;1215;-74
2022/10/29 15:16:50;;;;;;;;;;;;;;;;;;4982178;28;1934;-75
2022/10/29 15:19:16;;;;;;;;;;;;;;;;;;4974675;28;1171;-75
2022/10/29 15:21:43;;;;;;;;;;;;;;;;;;4983547;28;1274;-75
2022/10/29 15:24:10;;;;;;;;;;;;;;;;;;4983124;28;905;-74
2022/10/29 15:26:43;;;;;;;;;;;;;;;;;;4986612;28;901;-74
2022/10/29 15:29:10;;;;;;;;;;;;;;;;;;4985859;28;1201;-75
2022/10/29 15:31:41;;;;;;;;;;;;;;;;;;4985363;28;1352;-74
2022/10/29 15:34:08;;;;;;;;;;;;;;;;;;4980697;28;944;-75
2022/10/29 15:36:44;;;;;;;;;;;;;;;;;;4975114;28;2019;-74
2022/10/29 15:39:21;;;;;;;;;;;;;;;;;;4983553;28;1243;-74
2022/10/29 15:41:50;;;;;;;;;;;;;;;;;;4981839;28;1376;-75
2022/10/29 15:44:30;;;;;;;;;;;;;;;;;;4986162;28;885;-75
2022/10/29 15:46:57;;;;;;;;;;;;;;;;;;4991722;28;869;-75
2022/10/29 15:49:24;;;;;;;;;;;;;;;;;;5024057;28;1055;-75
2022/10/29 15:51:50;;;;;;;;;;;;;;;;;;4978390;28;1426;-75
2022/10/29 15:54:17;;;;;;;;;;;;;;;;;;4976552;28;886;-75
2022/10/29 15:56:43;;;;;;;;;;;;;;;;;;4986583;28;1962;-75
2022/10/29 15:59:11;;;;;;;;;;;;;;;;;;4984749;28;933;-75
2022/10/29 16:01:37;;;;;;;;;;;;;;;;;;4984484;28;1309;-75
2022/10/29 16:04:04;;;;;;;;;;;;;;;;;;4985895;28;1067;-75
2022/10/29 16:06:30;;;;;;;;;;;;;;;;;;4985451;28;952;-74
2022/10/29 16:08:57;;;;;;;;;;;;;;;;;;4985738;28;949;-75
2022/10/29 16:11:23;;;;;;;;;;;;;;;;;;4974412;28;1488;-75
2022/10/29 16:13:50;;;;;;;;;;;;;;;;;;4983345;28;1300;-75
2022/10/29 16:16:18;;;;;;;;;;;;;;;;;;4983885;28;1942;-75
2022/10/29 16:18:45;;;;;;;;;;;;;;;;;;4978986;28;994;-74
2022/10/29 16:21:12;;;;;;;;;;;;;;;;;;4983003;28;1404;-74
2022/10/29 16:23:38;;;;;;;;;;;;;;;;;;4984708;28;1015;-74
2022/10/29 16:26:05;;;;;;;;;;;;;;;;;;4981861;28;955;-74
2022/10/29 16:28:31;;;;;;;;;;;;;;;;;;4977262;28;893;-73
2022/10/29 16:30:58;;;;;;;;;;;;;;;;;;4983406;28;1364;-74
2022/10/29 16:33:26;;;;;;;;;;;;;;;;;;4985600;28;921;-74
2022/10/29 16:35:52;;;;;;;;;;;;;;;;;;4985140;28;2007;-73
2022/10/29 16:38:19;;;;;;;;;;;;;;;;;;4989476;28;1071;-75
2022/10/29 16:40:45;;;;;;;;;;;;;;;;;;4986287;28;1289;-74
2022/10/29 16:43:12;;;;;;;;;;;;;;;;;;4984442;28;997;-75
2022/10/29 16:45:38;;;;;;;;;;;;;;;;;;4982833;28;922;-75
2022/10/29 16:48:05;;;;;;;;;;;;;;;;;;4987229;28;1132;-73
2022/10/29 16:50:33;;;;;;;;;;;;;;;;;;4989163;28;1284;-75
2022/10/29 16:53:01;;;;;;;;;;;;;;;;;;4983875;28;1753;-74
2022/10/29 16:55:27;;;;;;;;;;;;;;;;;;4988923;28;956;-74
2022/10/29 16:57:54;;;;;;;;;;;;;;;;;;4985504;28;2016;-75
2022/10/29 17:00:20;;;;;;;;;;;;;;;;;;4983027;28;1443;-74
2022/10/29 17:02:47;;;;;;;;;;;;;;;;;;4980721;28;970;-74
2022/10/29 17:05:13;;;;;;;;;;;;;;;;;;4966850;28;1600;-74
2022/10/29 17:07:41;;;;;;;;;;;;;;;;;;4969613;28;953;-74
2022/10/29 17:10:08;;;;;;;;;;;;;;;;;;4982557;28;1477;-74
2022/10/29 17:12:35;;;;;;;;;;;;;;;;;;4987990;28;1120;-75